createdAt,value
2022-07-26T00:00:21.901Z,0.00
2022-07-26T00:01:21.870Z,0.00
2022-07-26T00:02:21.897Z,0.00
2022-07-26T00:03:21.864Z,0.00
2022-07-26T00:04:21.894Z,0.00
2022-07-26T00:05:21.812Z,0.00
2022-07-26T00:06:21.912Z,0.00
2022-07-26T00:07:21.866Z,0.00
2022-07-26T00:08:21.776Z,0.00
2022-07-26T00:09:21.915Z,0.00
2022-07-26T00:10:21.738Z,0.00
2022-07-26T00:11:21.629Z,0.00
2022-07-26T00:12:21.762Z,0.00
2022-07-26T00:13:21.815Z,0.00
2022-07-26T00:14:21.647Z,0.00
2022-07-26T00:15:21.673Z,0.00
2022-07-26T00:16:21.699Z,0.00
2022-07-26T00:17:21.801Z,0.00
2022-07-26T00:18:21.572Z,0.00
2022-07-26T00:19:21.696Z,0.00
2022-07-26T00:20:21.507Z,0.00
2022-07-26T00:21:21.591Z,0.00
2022-07-26T00:22:21.946Z,0.00
2022-07-26T00:23:21.806Z,0.00
2022-07-26T00:24:21.720Z,0.00
2022-07-26T00:25:21.628Z,0.00
2022-07-26T00:26:21.676Z,0.00
2022-07-26T00:27:21.705Z,0.00
2022-07-26T00:28:21.511Z,0.00
2022-07-26T00:29:21.546Z,0.00
2022-07-26T00:30:21.563Z,0.00
2022-07-26T00:31:21.562Z,0.00
2022-07-26T00:32:21.708Z,0.00
2022-07-26T00:33:21.563Z,0.00
2022-07-26T00:34:21.533Z,0.00
2022-07-26T00:35:21.449Z,0.00
2022-07-26T00:36:21.568Z,0.00
2022-07-26T00:37:21.500Z,0.00
2022-07-26T00:38:21.792Z,0.00
2022-07-26T00:39:21.343Z,0.00
2022-07-26T00:40:21.509Z,0.00
2022-07-26T00:41:21.704Z,0.00
2022-07-26T00:42:21.437Z,0.00
2022-07-26T00:43:21.557Z,0.00
2022-07-26T00:44:21.467Z,0.00
2022-07-26T00:45:21.386Z,0.00
2022-07-26T00:46:21.410Z,0.00
2022-07-26T00:47:21.465Z,0.00
2022-07-26T00:48:21.591Z,0.00
2022-07-26T00:49:21.436Z,0.00
2022-07-26T00:50:21.466Z,0.00
2022-07-26T00:51:21.360Z,0.00
2022-07-26T00:52:21.309Z,0.00
2022-07-26T00:53:21.220Z,0.00
2022-07-26T00:54:21.289Z,0.00
2022-07-26T00:55:21.643Z,0.00
2022-07-26T00:56:21.458Z,0.00
2022-07-26T00:57:21.212Z,0.00
2022-07-26T00:58:21.202Z,0.00
2022-07-26T00:59:21.191Z,0.00
2022-07-26T01:00:21.306Z,0.00
2022-07-26T01:01:21.153Z,0.00
2022-07-26T01:02:21.086Z,0.00
2022-07-26T01:03:21.078Z,0.00
2022-07-26T01:04:21.180Z,0.00
2022-07-26T01:05:21.216Z,0.00
2022-07-26T01:06:26.720Z,0.00
2022-07-26T01:07:21.007Z,0.00
2022-07-26T01:08:21.078Z,0.00
2022-07-26T01:09:21.317Z,0.00
2022-07-26T01:10:21.168Z,0.00
2022-07-26T01:11:21.246Z,0.00
2022-07-26T01:12:20.994Z,0.00
2022-07-26T01:13:21.001Z,0.00
2022-07-26T01:14:21.680Z,0.00
2022-07-26T01:15:21.004Z,0.00
2022-07-26T01:16:21.161Z,0.00
2022-07-26T01:17:21.120Z,0.00
2022-07-26T01:18:21.179Z,0.00
2022-07-26T01:19:21.496Z,0.00
2022-07-26T01:20:21.846Z,0.00
2022-07-26T01:21:21.818Z,0.00
2022-07-26T01:22:21.030Z,0.00
2022-07-26T01:23:21.035Z,0.00
2022-07-26T01:24:21.588Z,0.00
2022-07-26T01:25:20.867Z,0.00
2022-07-26T01:26:21.117Z,0.00
2022-07-26T01:27:20.914Z,0.00
2022-07-26T01:28:20.794Z,0.00
2022-07-26T01:29:20.872Z,0.00
2022-07-26T01:30:20.850Z,0.00
2022-07-26T01:31:20.977Z,0.00
2022-07-26T01:32:21.275Z,0.00
2022-07-26T01:33:21.026Z,0.00
2022-07-26T01:34:20.974Z,0.00
2022-07-26T01:35:21.101Z,0.00
2022-07-26T01:36:20.852Z,0.00
2022-07-26T01:37:20.910Z,0.00
2022-07-26T01:38:20.766Z,0.00
2022-07-26T01:39:20.751Z,0.00
2022-07-26T01:40:20.684Z,0.00
2022-07-26T01:41:20.726Z,0.00
2022-07-26T01:42:20.695Z,0.00
2022-07-26T01:43:20.672Z,0.00
2022-07-26T01:44:20.629Z,0.00
2022-07-26T01:45:20.583Z,0.00
2022-07-26T01:46:20.689Z,0.00
2022-07-26T01:47:20.667Z,0.00
2022-07-26T01:48:20.664Z,0.00
2022-07-26T01:49:20.694Z,0.00
2022-07-26T01:50:20.572Z,0.00
2022-07-26T01:51:20.659Z,0.00
2022-07-26T01:52:20.560Z,0.00
2022-07-26T01:53:20.589Z,0.00
2022-07-26T01:54:22.601Z,0.00
2022-07-26T01:55:20.552Z,0.00
2022-07-26T01:56:20.573Z,0.00
2022-07-26T01:57:20.620Z,0.00
2022-07-26T01:58:20.533Z,0.00
2022-07-26T01:59:20.603Z,0.00
2022-07-26T02:00:20.771Z,0.00
2022-07-26T02:01:38.000Z,0.00
2022-07-26T02:02:20.731Z,0.00
2022-07-26T02:03:20.847Z,0.00
2022-07-26T02:04:20.541Z,0.00
2022-07-26T02:05:20.567Z,0.00
2022-07-26T02:06:20.503Z,0.00
2022-07-26T02:07:20.396Z,0.00
2022-07-26T02:08:20.729Z,0.00
2022-07-26T02:09:20.492Z,0.00
2022-07-26T02:10:20.494Z,0.00
2022-07-26T02:11:20.510Z,0.00
2022-07-26T02:12:20.374Z,0.00
2022-07-26T02:13:20.418Z,0.00
2022-07-26T02:14:25.854Z,0.00
2022-07-26T02:15:20.316Z,0.00
2022-07-26T02:16:20.342Z,0.00
2022-07-26T02:17:20.282Z,0.00
2022-07-26T02:18:20.426Z,0.00
2022-07-26T02:19:20.277Z,0.00
2022-07-26T02:20:20.284Z,0.00
2022-07-26T02:21:20.219Z,0.00
2022-07-26T02:22:20.231Z,0.00
2022-07-26T02:23:20.278Z,0.00
2022-07-26T02:24:20.248Z,0.00
2022-07-26T02:25:20.299Z,0.00
2022-07-26T02:26:20.232Z,0.00
2022-07-26T02:27:20.295Z,0.00
2022-07-26T02:28:20.248Z,0.00
2022-07-26T02:29:20.272Z,0.00
2022-07-26T02:30:20.133Z,0.00
2022-07-26T02:31:20.169Z,0.00
2022-07-26T02:32:20.243Z,0.00
2022-07-26T02:33:20.118Z,0.00
2022-07-26T02:34:20.153Z,0.00
2022-07-26T02:35:20.162Z,0.00
2022-07-26T02:36:20.120Z,0.00
2022-07-26T02:37:20.084Z,0.00
2022-07-26T02:38:20.100Z,0.00
2022-07-26T02:39:20.090Z,0.00
2022-07-26T02:40:20.073Z,0.00
2022-07-26T02:41:20.056Z,0.00
2022-07-26T02:42:20.043Z,0.00
2022-07-26T02:43:20.045Z,0.00
2022-07-26T02:44:20.114Z,0.00
2022-07-26T02:45:19.980Z,0.00
2022-07-26T02:46:20.037Z,0.00
2022-07-26T02:47:19.937Z,0.00
2022-07-26T02:48:19.912Z,0.00
2022-07-26T02:49:19.948Z,0.00
2022-07-26T02:50:20.016Z,0.00
2022-07-26T02:51:19.884Z,0.00
2022-07-26T02:52:20.242Z,0.00
2022-07-26T02:53:19.856Z,0.00
2022-07-26T02:54:19.863Z,0.00
2022-07-26T02:55:19.932Z,0.00
2022-07-26T02:56:19.841Z,0.00
2022-07-26T02:57:19.929Z,0.00
2022-07-26T02:58:19.819Z,0.00
2022-07-26T02:59:19.864Z,0.00
2022-07-26T03:00:19.888Z,0.00
2022-07-26T03:01:19.954Z,0.00
2022-07-26T03:02:19.818Z,0.00
2022-07-26T03:03:19.832Z,0.00
2022-07-26T03:04:19.784Z,0.00
2022-07-26T03:05:19.807Z,0.00
2022-07-26T03:06:19.827Z,0.00
2022-07-26T03:07:19.765Z,0.00
2022-07-26T03:08:19.676Z,0.00
2022-07-26T03:09:19.724Z,0.00
2022-07-26T03:10:19.796Z,0.00
2022-07-26T03:11:19.749Z,0.00
2022-07-26T03:12:19.780Z,0.00
2022-07-26T03:13:19.667Z,0.00
2022-07-26T03:14:19.695Z,4.00
2022-07-26T03:15:19.683Z,4.00
2022-07-26T03:16:22.637Z,0.00
2022-07-26T03:17:19.683Z,0.00
2022-07-26T03:18:19.694Z,4.00
2022-07-26T03:19:19.670Z,4.00
2022-07-26T03:20:19.602Z,0.00
2022-07-26T03:21:19.684Z,4.00
2022-07-26T03:22:19.602Z,4.00
2022-07-26T03:23:19.597Z,4.00
2022-07-26T03:24:19.674Z,4.00
2022-07-26T03:25:19.519Z,8.00
2022-07-26T03:26:19.599Z,4.00
2022-07-26T03:27:19.554Z,8.00
2022-07-26T03:28:19.828Z,8.00
2022-07-26T03:29:19.473Z,8.00
2022-07-26T03:30:24.752Z,12.00
2022-07-26T03:31:19.687Z,12.00
2022-07-26T03:32:19.515Z,12.00
2022-07-26T03:33:19.545Z,12.00
2022-07-26T03:34:19.488Z,12.00
2022-07-26T03:35:19.674Z,16.00
2022-07-26T03:36:19.641Z,16.00
2022-07-26T03:37:19.612Z,16.00
2022-07-26T03:38:19.537Z,20.00
2022-07-26T03:39:19.406Z,24.00
2022-07-26T03:40:20.117Z,24.00
2022-07-26T03:41:19.446Z,24.00
2022-07-26T03:42:19.383Z,28.00
2022-07-26T03:43:23.037Z,28.00
2022-07-26T03:44:19.409Z,32.00
2022-07-26T03:45:19.332Z,36.00
2022-07-26T03:46:19.472Z,40.00
2022-07-26T03:47:19.418Z,44.00
2022-07-26T03:48:19.404Z,44.00
2022-07-26T03:49:19.416Z,48.00
2022-07-26T03:50:19.412Z,52.00
2022-07-26T03:51:19.385Z,56.00
2022-07-26T03:52:19.344Z,60.00
2022-07-26T03:53:19.311Z,68.00
2022-07-26T03:54:19.357Z,72.00
2022-07-26T03:55:19.276Z,80.00
2022-07-26T03:56:19.285Z,88.00
2022-07-26T03:57:19.298Z,96.00
2022-07-26T03:58:19.269Z,104.00
2022-07-26T03:59:19.311Z,116.00
2022-07-26T04:00:19.232Z,128.00
2022-07-26T04:01:19.292Z,140.00
2022-07-26T04:02:19.237Z,148.00
2022-07-26T04:03:19.231Z,160.00
2022-07-26T04:04:19.161Z,168.00
2022-07-26T04:05:21.694Z,184.00
2022-07-26T04:06:19.236Z,196.00
2022-07-26T04:07:19.128Z,212.00
2022-07-26T04:08:19.101Z,224.00
2022-07-26T04:09:19.037Z,236.00
2022-07-26T04:10:19.042Z,256.00
2022-07-26T04:11:19.501Z,272.00
2022-07-26T04:12:19.150Z,292.00
2022-07-26T04:13:19.055Z,308.00
2022-07-26T04:14:19.153Z,328.00
2022-07-26T04:15:19.179Z,348.00
2022-07-26T04:16:19.128Z,368.00
2022-07-26T04:17:19.122Z,392.00
2022-07-26T04:18:19.142Z,412.00
2022-07-26T04:19:18.951Z,436.00
2022-07-26T04:20:19.011Z,464.00
2022-07-26T04:21:19.063Z,488.00
2022-07-26T04:22:19.159Z,512.00
2022-07-26T04:23:19.074Z,544.00
2022-07-26T04:24:18.906Z,576.00
2022-07-26T04:25:18.939Z,608.00
2022-07-26T04:26:19.056Z,640.00
2022-07-26T04:27:18.949Z,672.00
2022-07-26T04:28:18.972Z,704.00
2022-07-26T04:29:18.943Z,736.00
2022-07-26T04:30:19.037Z,764.00
2022-07-26T04:31:19.165Z,792.00
2022-07-26T04:32:18.950Z,820.00
2022-07-26T04:33:18.845Z,852.00
2022-07-26T04:34:18.906Z,884.00
2022-07-26T04:35:18.843Z,916.00
2022-07-26T04:36:54.023Z,948.00
2022-07-26T04:37:18.900Z,976.00
2022-07-26T04:48:50.445Z,1296.00
2022-07-26T04:49:49.926Z,1340.00
2022-07-26T04:50:50.506Z,1372.00
2022-07-26T04:51:56.260Z,1376.00
2022-07-26T06:06:44.661Z,3332.00
2022-07-26T06:07:45.274Z,3360.00
2022-07-26T06:08:44.816Z,3372.00
2022-07-26T06:09:44.801Z,3392.00
2022-07-26T06:10:45.710Z,3444.00
2022-07-26T06:11:44.851Z,3472.00
2022-07-26T06:12:44.787Z,3476.00
2022-07-26T06:13:44.747Z,3516.00
2022-07-26T06:14:44.732Z,3544.00
2022-07-26T06:15:44.745Z,3620.00
2022-07-26T06:16:44.777Z,3652.00
2022-07-26T06:17:44.714Z,3748.00
2022-07-26T06:18:44.752Z,3836.00
2022-07-26T06:19:47.756Z,3840.00
2022-07-26T06:20:44.665Z,3168.00
2022-07-26T06:21:44.670Z,4000.00
2022-07-26T06:22:44.658Z,4044.00
2022-07-26T06:23:44.632Z,4100.00
2022-07-26T06:24:44.697Z,3780.00
2022-07-26T06:25:44.593Z,4148.00
2022-07-26T06:26:44.584Z,4132.00
2022-07-26T06:27:44.593Z,4056.00
2022-07-26T06:28:44.689Z,4252.00
2022-07-26T06:29:44.647Z,3568.00
2022-07-26T06:30:44.537Z,2988.00
2022-07-26T06:31:45.708Z,2792.00
2022-07-26T06:32:44.608Z,3148.00
2022-07-26T06:33:44.533Z,3912.00
2022-07-26T06:34:44.496Z,3208.00
2022-07-26T06:35:44.511Z,3452.00
2022-07-26T06:36:44.940Z,3480.00
2022-07-26T06:37:44.497Z,3296.00
2022-07-26T06:38:44.477Z,3972.00
2022-07-26T06:39:44.462Z,3932.00
2022-07-26T06:40:44.453Z,4264.00
2022-07-26T06:41:44.407Z,2972.00
2022-07-26T06:42:44.486Z,3024.00
2022-07-26T06:43:44.400Z,3084.00
2022-07-26T06:44:44.399Z,3872.00
2022-07-26T06:45:44.423Z,4260.00
2022-07-26T06:46:44.341Z,4472.00
2022-07-26T06:47:44.329Z,3008.00
2022-07-26T06:48:47.417Z,4140.00
2022-07-26T06:49:44.313Z,2868.00
2022-07-26T06:50:44.347Z,2792.00
2022-07-26T06:51:44.309Z,2776.00
2022-07-26T06:52:47.950Z,2948.00
2022-07-26T06:53:44.282Z,3084.00
2022-07-26T06:54:44.323Z,3556.00
2022-07-26T06:55:44.265Z,3124.00
2022-07-26T06:56:44.293Z,3252.00
2022-07-26T06:57:50.108Z,3148.00
2022-07-26T06:58:44.296Z,3132.00
2022-07-26T06:59:44.292Z,3020.00
2022-07-26T07:00:44.282Z,3004.00
2022-07-26T07:01:58.381Z,2900.00
2022-07-26T07:02:44.144Z,2840.00
2022-07-26T07:03:44.269Z,2796.00
2022-07-26T07:04:44.232Z,2740.00
2022-07-26T07:05:48.032Z,2648.00
2022-07-26T07:06:44.119Z,2576.00
2022-07-26T07:07:44.130Z,2536.00
2022-07-26T07:08:44.147Z,2512.00
2022-07-26T07:09:44.101Z,2508.00
2022-07-26T07:10:44.040Z,2496.00
2022-07-26T07:11:44.042Z,2484.00
2022-07-26T07:12:44.047Z,2500.00
2022-07-26T07:13:44.106Z,2508.00
2022-07-26T07:14:43.998Z,2528.00
2022-07-26T07:15:44.021Z,2536.00
2022-07-26T07:16:44.116Z,2540.00
2022-07-26T07:17:43.960Z,2544.00
2022-07-26T07:18:43.983Z,2544.00
2022-07-26T07:19:43.947Z,2536.00
2022-07-26T07:20:43.982Z,2520.00
2022-07-26T07:21:43.915Z,2508.00
2022-07-26T07:22:43.893Z,2512.00
2022-07-26T07:23:43.895Z,2508.00
2022-07-26T07:24:43.898Z,2484.00
2022-07-26T07:25:44.825Z,2432.00
2022-07-26T07:26:43.899Z,2380.00
2022-07-26T07:27:43.879Z,2336.00
2022-07-26T07:28:43.819Z,2324.00
2022-07-26T07:29:43.898Z,2344.00
2022-07-26T07:30:43.857Z,2380.00
2022-07-26T07:31:49.081Z,2432.00
2022-07-26T07:32:43.840Z,2484.00
2022-07-26T07:33:53.519Z,2528.00
2022-07-26T07:34:43.807Z,2580.00
2022-07-26T07:35:43.807Z,2640.00
2022-07-26T07:36:43.812Z,2716.00
2022-07-26T07:37:52.794Z,2772.00
2022-07-26T07:38:43.713Z,2812.00
2022-07-26T07:39:43.755Z,2872.00
2022-07-26T07:40:43.709Z,2884.00
2022-07-26T07:41:43.709Z,2900.00
2022-07-26T07:42:43.669Z,2904.00
2022-07-26T07:43:43.708Z,2928.00
2022-07-26T07:44:43.780Z,2928.00
2022-07-26T07:45:43.650Z,2940.00
2022-07-26T07:46:43.773Z,2936.00
2022-07-26T07:47:43.704Z,2872.00
2022-07-26T07:48:47.309Z,2768.00
2022-07-26T07:49:44.044Z,2656.00
2022-07-26T07:50:43.637Z,2548.00
2022-07-26T07:51:43.577Z,2496.00
2022-07-26T07:52:43.551Z,2488.00
2022-07-26T07:53:43.561Z,2480.00
2022-07-26T07:54:43.522Z,2332.00
2022-07-26T07:55:46.068Z,2260.00
2022-07-26T07:56:43.548Z,2184.00
2022-07-26T07:57:43.499Z,2140.00
2022-07-26T07:58:43.895Z,2128.00
2022-07-26T07:59:43.496Z,2132.00
2022-07-26T08:00:43.512Z,2132.00
2022-07-26T08:01:43.442Z,2136.00
2022-07-26T08:02:43.467Z,2148.00
2022-07-26T08:03:43.479Z,2160.00
2022-07-26T08:04:43.526Z,2204.00
2022-07-26T08:05:43.508Z,2220.00
2022-07-26T08:06:50.170Z,2236.00
2022-07-26T08:07:43.361Z,2232.00
2022-07-26T08:08:43.367Z,2196.00
2022-07-26T08:09:43.383Z,2160.00
2022-07-26T08:10:51.658Z,2204.00
2022-07-26T08:11:43.372Z,2192.00
2022-07-26T08:12:43.332Z,2168.00
2022-07-26T08:13:47.612Z,2092.00
2022-07-26T08:14:43.278Z,2036.00
2022-07-26T08:15:43.305Z,1984.00
2022-07-26T08:16:43.399Z,1960.00
2022-07-26T08:17:43.252Z,1956.00
2022-07-26T08:18:56.191Z,1968.00
2022-07-26T08:19:43.213Z,2004.00
2022-07-26T08:20:43.263Z,2056.00
2022-07-26T08:21:43.199Z,2112.00
2022-07-26T08:22:43.198Z,2164.00
2022-07-26T08:23:43.232Z,2208.00
2022-07-26T08:24:43.165Z,2236.00
2022-07-26T08:25:55.563Z,2248.00
2022-07-26T08:26:43.178Z,2272.00
2022-07-26T08:27:43.447Z,2308.00
2022-07-26T08:28:47.715Z,2356.00
2022-07-26T08:29:45.102Z,2412.00
2022-07-26T08:30:43.158Z,2468.00
2022-07-26T08:31:43.122Z,2508.00
2022-07-26T08:32:43.081Z,2540.00
2022-07-26T08:33:46.388Z,2556.00
2022-07-26T08:34:43.070Z,2552.00
2022-07-26T08:35:43.060Z,2536.00
2022-07-26T08:37:06.979Z,2512.00
2022-07-26T08:37:43.025Z,2492.00
2022-07-26T08:38:43.008Z,2480.00
2022-07-26T08:39:43.028Z,2476.00
2022-07-26T08:40:42.984Z,2488.00
2022-07-26T08:41:43.000Z,2500.00
2022-07-26T08:42:42.984Z,2504.00
2022-07-26T08:43:46.694Z,2512.00
2022-07-26T08:44:43.718Z,2532.00
2022-07-26T08:45:43.968Z,2548.00
2022-07-26T08:46:43.063Z,2572.00
2022-07-26T08:47:55.372Z,2592.00
2022-07-26T08:48:42.998Z,2616.00
2022-07-26T08:49:42.924Z,2644.00
2022-07-26T08:50:42.899Z,2660.00
2022-07-26T08:51:42.964Z,2684.00
2022-07-26T08:52:42.912Z,2700.00
2022-07-26T08:53:43.607Z,2732.00
2022-07-26T08:54:42.851Z,2776.00
2022-07-26T08:56:05.874Z,2828.00
2022-07-26T08:56:44.931Z,2872.00
2022-07-26T08:57:42.838Z,2928.00
2022-07-26T08:58:42.917Z,2972.00
2022-07-26T08:59:42.792Z,3000.00
2022-07-26T09:00:42.811Z,3044.00
2022-07-26T09:01:43.037Z,3084.00
2022-07-26T09:02:42.896Z,3128.00
2022-07-26T09:03:43.007Z,3164.00
2022-07-26T09:04:44.742Z,3196.00
2022-07-26T09:05:42.901Z,3216.00
2022-07-26T09:06:42.914Z,3220.00
2022-07-26T09:07:42.935Z,3232.00
2022-07-26T09:08:42.859Z,3244.00
2022-07-26T09:09:42.836Z,3252.00
2022-07-26T09:10:42.795Z,3256.00
2022-07-26T09:11:43.445Z,3280.00
2022-07-26T09:12:42.963Z,3312.00
2022-07-26T09:13:43.955Z,3348.00
2022-07-26T09:14:44.913Z,3404.00
2022-07-26T09:20:30.643Z,3788.00
2022-07-26T09:21:30.603Z,3800.00
2022-07-26T09:22:30.556Z,3872.00
2022-07-26T09:23:30.873Z,4004.00
2022-07-26T09:24:30.405Z,4060.00
2022-07-26T09:25:30.607Z,4060.00
2022-07-26T09:26:30.404Z,4112.00
2022-07-26T09:27:30.421Z,4260.00
2022-07-26T09:28:30.372Z,4424.00
2022-07-26T09:29:30.361Z,4540.00
2022-07-26T09:30:30.341Z,4616.00
2022-07-26T09:31:30.419Z,4608.00
2022-07-26T09:32:30.319Z,4524.00
2022-07-26T09:33:30.302Z,4488.00
2022-07-26T09:34:30.317Z,4464.00
2022-07-26T09:35:50.982Z,4460.00
2022-07-26T09:36:31.256Z,4640.00
2022-07-26T09:37:30.306Z,4884.00
2022-07-26T09:38:30.235Z,5064.00
2022-07-26T09:39:34.117Z,5104.00
2022-07-26T09:40:30.226Z,5028.00
2022-07-26T09:41:31.484Z,4952.00
2022-07-26T09:42:31.358Z,4960.00
2022-07-26T09:43:31.465Z,5004.00
2022-07-26T09:44:31.294Z,5220.00
2022-07-26T09:45:31.344Z,5140.00
2022-07-26T09:46:31.356Z,4832.00
2022-07-26T09:47:31.285Z,4580.00
2022-07-26T09:48:52.154Z,4552.00
2022-07-26T09:49:40.891Z,4440.00
2022-07-26T09:50:32.280Z,4572.00
2022-07-26T09:51:31.232Z,4860.00
2022-07-26T09:52:31.231Z,4904.00
2022-07-26T09:53:31.189Z,4984.00
2022-07-26T09:54:31.181Z,5344.00
2022-07-26T09:55:40.883Z,6304.00
2022-07-26T09:56:31.149Z,5588.00
2022-07-26T09:57:31.148Z,5124.00
2022-07-26T09:58:33.201Z,5092.00
2022-07-26T09:59:35.664Z,5012.00
2022-07-26T10:00:31.109Z,4832.00
2022-07-26T10:01:31.169Z,4628.00
2022-07-26T10:02:31.143Z,5232.00
2022-07-26T10:03:31.226Z,5192.00
2022-07-26T10:04:31.055Z,5052.00
2022-07-26T10:05:31.067Z,5036.00
2022-07-26T10:06:31.054Z,5256.00
2022-07-26T10:07:31.049Z,4252.00
2022-07-26T10:08:31.061Z,4360.00
2022-07-26T10:09:31.026Z,3964.00
2022-07-26T10:10:31.004Z,4076.00
2022-07-26T10:11:30.991Z,6364.00
2022-07-26T14:49:37.685Z,4612.00
2022-07-26T14:50:59.654Z,3896.00
2022-07-26T14:51:37.173Z,3532.00
2022-07-26T14:52:36.767Z,3188.00
2022-07-26T14:53:36.716Z,2980.00
2022-07-26T14:54:36.681Z,2632.00
2022-07-26T14:55:36.609Z,2512.00
2022-07-26T14:56:36.584Z,2488.00
2022-07-26T14:57:39.615Z,2432.00
2022-07-26T14:58:36.607Z,2444.00
2022-07-26T14:59:36.578Z,2456.00
2022-07-26T15:00:36.600Z,2456.00
2022-07-26T15:01:37.911Z,2524.00
2022-07-26T15:02:37.877Z,2668.00
2022-07-26T15:03:37.713Z,2724.00
2022-07-26T15:04:37.721Z,2840.00
2022-07-26T15:05:37.623Z,3024.00
2022-07-26T15:06:37.639Z,3392.00
2022-07-26T15:07:37.774Z,3868.00
2022-07-26T15:08:37.623Z,4212.00
2022-07-26T15:09:37.614Z,4460.00
2022-07-26T15:10:37.577Z,4656.00
2022-07-26T15:11:37.584Z,4956.00
2022-07-26T15:12:37.552Z,4880.00
2022-07-26T15:13:37.569Z,5072.00
2022-07-26T15:14:37.542Z,5292.00
2022-07-26T15:15:37.510Z,5588.00
2022-07-26T15:16:37.544Z,5892.00
2022-07-26T15:17:37.512Z,6132.00
2022-07-26T15:18:37.472Z,6308.00
2022-07-26T15:19:37.460Z,6220.00
2022-07-26T15:20:37.485Z,6564.00
2022-07-26T15:21:37.451Z,6316.00
2022-07-26T15:22:37.418Z,5352.00
2022-07-26T15:23:37.484Z,4908.00
2022-07-26T15:24:40.015Z,5368.00
2022-07-26T15:25:37.381Z,5980.00
2022-07-26T15:26:37.412Z,5732.00
2022-07-26T15:27:37.353Z,5896.00
2022-07-26T15:28:37.359Z,6152.00
2022-07-26T15:29:37.373Z,6188.00
2022-07-26T15:30:37.325Z,5840.00
2022-07-26T15:31:37.999Z,6212.00
2022-07-26T15:32:38.342Z,5632.00
2022-07-26T15:33:37.353Z,4420.00
2022-07-26T15:34:37.322Z,4388.00
2022-07-26T15:35:37.304Z,4712.00
2022-07-26T15:36:37.293Z,4704.00
2022-07-26T15:37:37.295Z,5348.00
2022-07-26T15:38:37.309Z,4872.00
2022-07-26T15:39:37.226Z,4476.00
2022-07-26T15:40:37.233Z,4256.00
2022-07-26T15:41:37.249Z,4348.00
2022-07-26T15:42:37.184Z,4548.00
2022-07-26T15:43:48.986Z,4572.00
2022-07-26T15:44:37.149Z,4452.00
2022-07-26T15:45:37.196Z,4572.00
2022-07-26T15:46:37.185Z,4928.00
2022-07-26T15:47:53.909Z,5236.00
2022-07-26T15:48:38.137Z,5040.00
2022-07-26T15:49:40.642Z,4932.00
2022-07-26T15:50:37.101Z,4656.00
2022-07-26T15:51:37.092Z,4236.00
2022-07-26T15:52:37.083Z,3852.00
2022-07-26T15:53:37.055Z,3772.00
2022-07-26T15:54:37.069Z,3672.00
2022-07-26T15:55:38.035Z,4200.00
2022-07-26T15:56:37.047Z,4092.00
2022-07-26T15:57:37.007Z,4588.00
2022-07-26T15:58:36.984Z,5260.00
2022-07-26T15:59:37.075Z,5448.00
2022-07-26T16:00:37.072Z,4956.00
2022-07-26T16:01:37.051Z,4560.00
2022-07-26T16:02:37.028Z,4428.00
2022-07-26T16:03:36.947Z,3912.00
2022-07-26T16:04:36.923Z,3860.00
2022-07-26T16:05:36.916Z,3824.00
2022-07-26T16:06:36.896Z,3996.00
2022-07-26T16:07:36.899Z,4336.00
2022-07-26T16:08:52.464Z,4460.00
2022-07-26T16:09:36.907Z,4700.00
2022-07-26T16:10:36.857Z,4604.00
2022-07-26T16:11:36.846Z,4512.00
2022-07-26T16:12:36.852Z,4372.00
2022-07-26T16:13:36.843Z,4416.00
2022-07-26T16:14:36.825Z,4440.00
2022-07-26T16:15:36.799Z,4468.00
2022-07-26T16:16:36.798Z,4488.00
2022-07-26T16:17:36.767Z,4160.00
2022-07-26T16:18:36.752Z,3868.00
2022-07-26T16:19:36.755Z,3884.00
2022-07-26T16:20:36.738Z,3608.00
2022-07-26T16:21:36.729Z,3476.00
2022-07-26T16:22:36.699Z,3304.00
2022-07-26T16:23:36.710Z,2932.00
2022-07-26T16:24:36.758Z,2692.00
2022-07-26T16:25:36.667Z,2784.00
2022-07-26T16:26:36.646Z,2648.00
2022-07-26T16:27:36.721Z,2296.00
2022-07-26T16:28:36.630Z,2340.00
2022-07-26T16:29:36.677Z,2552.00
2022-07-26T16:30:36.651Z,2452.00
2022-07-26T16:31:36.673Z,2624.00
2022-07-26T16:32:36.955Z,2740.00
2022-07-26T16:33:36.610Z,2544.00
2022-07-26T16:34:36.657Z,2560.00
2022-07-26T16:35:36.567Z,2728.00
2022-07-26T16:36:37.587Z,2956.00
2022-07-26T16:37:36.601Z,3076.00
2022-07-26T16:38:36.577Z,3336.00
2022-07-26T16:39:36.603Z,3428.00
2022-07-26T16:40:36.527Z,3428.00
2022-07-26T16:41:36.851Z,3428.00
2022-07-26T16:42:36.559Z,3336.00
2022-07-26T16:43:36.511Z,3312.00
2022-07-26T16:44:36.550Z,3204.00
2022-07-26T16:45:36.456Z,3040.00
2022-07-26T16:46:36.576Z,3076.00
2022-07-26T16:47:36.447Z,3100.00
2022-07-26T16:48:36.489Z,3092.00
2022-07-26T16:49:36.400Z,3068.00
2022-07-26T16:50:36.453Z,3012.00
2022-07-26T16:51:36.347Z,2940.00
2022-07-26T16:52:37.355Z,2916.00
2022-07-26T16:53:36.429Z,2848.00
2022-07-26T16:54:36.370Z,2760.00
2022-07-26T16:55:36.316Z,2680.00
2022-07-26T16:56:36.297Z,2720.00
2022-07-26T16:57:36.313Z,2536.00
2022-07-26T16:58:36.268Z,2424.00
2022-07-26T16:59:36.259Z,2428.00
2022-07-26T17:00:36.398Z,2396.00
2022-07-26T17:01:36.317Z,2348.00
2022-07-26T17:02:36.320Z,2216.00
2022-07-26T17:03:36.234Z,2068.00
2022-07-26T17:04:36.195Z,1904.00
2022-07-26T17:05:36.211Z,1952.00
2022-07-26T17:06:36.282Z,1840.00
2022-07-26T17:07:36.157Z,1736.00
2022-07-26T17:08:36.224Z,1668.00
2022-07-26T17:09:36.152Z,1620.00
2022-07-26T17:10:36.218Z,1532.00
2022-07-26T17:11:36.179Z,1440.00
2022-07-26T17:12:36.104Z,1368.00
